createdAt,value
2022-11-05T00:01:43.905Z,100.00
2022-11-05T00:04:04.403Z,100.00
2022-11-05T00:06:25.953Z,100.00
2022-11-05T00:08:46.554Z,100.00
2022-11-05T00:10:54.654Z,100.00
2022-11-05T00:13:18.021Z,100.00
2022-11-05T00:15:38.521Z,100.00
2022-11-05T00:17:46.781Z,100.00
2022-11-05T00:19:54.875Z,100.00
2022-11-05T00:22:15.013Z,100.00
2022-11-05T00:24:36.026Z,100.00
2022-11-05T00:26:44.220Z,100.00
2022-11-05T00:28:55.080Z,100.00
2022-11-05T00:31:04.845Z,100.00
2022-11-05T00:33:15.110Z,100.00
2022-11-05T00:35:26.420Z,100.00
2022-11-05T00:37:35.762Z,100.00
2022-11-05T00:39:43.895Z,100.00
2022-11-05T00:42:13.164Z,100.00
2022-11-05T00:44:36.151Z,100.00
2022-11-05T00:46:44.737Z,100.00
2022-11-05T00:49:08.292Z,100.00
2022-11-05T00:51:16.383Z,100.00
2022-11-05T00:53:25.724Z,100.00
2022-11-05T00:55:38.345Z,100.00
2022-11-05T00:57:46.604Z,100.00
2022-11-05T00:59:57.405Z,100.00
2022-11-05T01:02:05.565Z,100.00
2022-11-05T01:04:14.226Z,100.00
2022-11-05T01:06:22.732Z,100.00
2022-11-05T01:08:31.434Z,100.00
2022-11-05T01:10:44.708Z,100.00
2022-11-05T01:12:53.094Z,100.00
2022-11-05T01:15:04.311Z,100.00
2022-11-05T01:17:12.542Z,100.00
2022-11-05T01:19:20.617Z,100.00
2022-11-05T01:21:28.665Z,100.00
2022-11-05T01:23:36.932Z,100.00
2022-11-05T01:25:45.904Z,100.00
2022-11-05T01:27:54.281Z,100.00
2022-11-05T01:30:08.318Z,100.00
2022-11-05T01:32:17.481Z,100.00
2022-11-05T01:34:25.903Z,100.00
2022-11-05T01:36:34.543Z,100.00
2022-11-05T01:38:43.556Z,100.00
2022-11-05T01:40:51.988Z,100.00
2022-11-05T01:43:00.349Z,100.00
2022-11-05T01:45:20.050Z,100.00
2022-11-05T01:47:36.687Z,100.00
2022-11-05T01:49:48.008Z,100.00
2022-11-05T01:51:57.404Z,100.00
2022-11-05T01:54:08.747Z,100.00
2022-11-05T01:56:20.176Z,100.00
2022-11-05T01:58:34.384Z,100.00
2022-11-05T02:00:47.495Z,100.00
2022-11-05T02:02:55.915Z,100.00
2022-11-05T02:05:09.697Z,100.00
2022-11-05T02:07:18.529Z,100.00
2022-11-05T02:09:30.730Z,100.00
2022-11-05T02:11:38.776Z,100.00
2022-11-05T02:13:47.353Z,100.00
2022-11-05T02:16:06.017Z,100.00
2022-11-05T02:18:23.664Z,100.00
2022-11-05T02:20:37.704Z,100.00
2022-11-05T02:23:15.468Z,100.00
2022-11-05T02:25:48.105Z,100.00
2022-11-05T02:28:26.325Z,100.00
2022-11-05T02:30:46.754Z,100.00
2022-11-05T02:33:13.222Z,100.00
2022-11-05T02:35:34.750Z,100.00
2022-11-05T02:37:44.999Z,100.00
2022-11-05T02:40:00.170Z,100.00
2022-11-05T02:42:19.892Z,100.00
2022-11-05T02:44:37.381Z,100.00
2022-11-05T02:46:54.585Z,100.00
2022-11-05T02:49:11.724Z,100.00
2022-11-05T02:51:26.461Z,100.00
2022-11-05T02:53:43.485Z,100.00
2022-11-05T02:55:59.539Z,100.00
2022-11-05T02:58:08.637Z,100.00
2022-11-05T03:00:52.254Z,100.00
2022-11-05T03:03:03.048Z,100.00
2022-11-05T03:05:12.848Z,100.00
2022-11-05T03:07:33.001Z,100.00
2022-11-05T03:10:08.893Z,100.00
2022-11-05T03:12:29.910Z,100.00
2022-11-05T03:14:47.208Z,100.00
2022-11-05T03:17:01.393Z,100.00
2022-11-05T03:19:20.273Z,100.00
2022-11-05T03:21:42.684Z,100.00
2022-11-05T03:23:57.836Z,100.00
2022-11-05T03:26:11.385Z,100.00
2022-11-05T03:28:25.224Z,100.00
2022-11-05T03:30:35.639Z,100.00
2022-11-05T03:32:51.088Z,100.00
2022-11-05T03:35:09.040Z,100.00
2022-11-05T03:37:21.019Z,100.00
2022-11-05T03:39:33.314Z,100.00
2022-11-05T03:41:45.134Z,100.00
2022-11-05T03:43:58.365Z,100.00
2022-11-05T03:46:12.025Z,100.00
2022-11-05T03:48:22.479Z,100.00
2022-11-05T03:50:41.430Z,100.00
2022-11-05T03:52:55.165Z,100.00
2022-11-05T03:55:03.523Z,100.00
2022-11-05T03:57:18.013Z,100.00
2022-11-05T03:59:27.081Z,100.00
2022-11-05T04:01:36.854Z,100.00
2022-11-05T04:03:46.493Z,100.00
2022-11-05T04:06:11.236Z,100.00
2022-11-05T04:08:33.291Z,100.00
2022-11-05T04:11:02.554Z,100.00
2022-11-05T04:13:28.699Z,100.00
2022-11-05T04:15:57.109Z,100.00
2022-11-05T04:18:02.837Z,100.00
2022-11-05T04:20:23.590Z,100.00
2022-11-05T04:22:48.450Z,100.00
2022-11-05T04:24:57.734Z,100.00
2022-11-05T04:27:05.715Z,100.00
2022-11-05T04:29:28.012Z,100.00
2022-11-05T04:31:36.073Z,100.00
2022-11-05T04:33:45.410Z,100.00
2022-11-05T04:35:53.594Z,100.00
2022-11-05T04:38:05.005Z,100.00
2022-11-05T04:40:13.787Z,100.00
2022-11-05T04:42:23.359Z,100.00
2022-11-05T04:44:32.170Z,100.00
2022-11-05T04:46:40.555Z,100.00
2022-11-05T04:48:48.749Z,100.00
2022-11-05T04:50:57.057Z,100.00
2022-11-05T04:53:08.061Z,100.00
2022-11-05T04:55:17.950Z,100.00
2022-11-05T04:57:30.994Z,100.00
2022-11-05T04:59:39.152Z,100.00
2022-11-05T05:02:11.527Z,100.00
2022-11-05T05:04:21.032Z,100.00
2022-11-05T05:06:29.260Z,100.00
2022-11-05T05:08:40.150Z,100.00
2022-11-05T05:10:48.200Z,100.00
2022-11-05T05:12:57.169Z,100.00
2022-11-05T05:15:05.370Z,100.00
2022-11-05T05:17:14.020Z,100.00
2022-11-05T05:19:22.079Z,100.00
2022-11-05T05:21:40.625Z,100.00
2022-11-05T05:23:52.561Z,100.00
2022-11-05T05:26:02.342Z,100.00
2022-11-05T05:28:11.196Z,100.00
2022-11-05T05:30:19.737Z,100.00
2022-11-05T05:32:28.755Z,100.00
2022-11-05T05:34:37.217Z,100.00
2022-11-05T05:36:45.366Z,100.00
2022-11-05T05:38:57.856Z,100.00
2022-11-05T05:41:06.431Z,100.00
2022-11-05T05:43:14.873Z,100.00
2022-11-05T05:45:23.064Z,100.00
2022-11-05T05:47:31.236Z,100.00
2022-11-05T05:49:39.293Z,100.00
2022-11-05T05:51:47.393Z,100.00
2022-11-05T05:53:58.800Z,100.00
2022-11-05T05:56:08.123Z,100.00
2022-11-05T05:58:16.436Z,100.00
2022-11-05T06:00:24.792Z,100.00
2022-11-05T06:02:33.712Z,100.00
2022-11-05T06:04:43.325Z,100.00
2022-11-05T06:06:53.099Z,100.00
2022-11-05T06:09:04.301Z,100.00
2022-11-05T06:11:12.750Z,100.00
2022-11-05T06:13:20.631Z,100.00
2022-11-05T06:15:34.611Z,100.00
2022-11-05T06:17:54.556Z,100.00
2022-11-05T06:20:02.628Z,100.00
2022-11-05T06:22:11.592Z,100.00
2022-11-05T06:24:22.628Z,100.00
2022-11-05T06:26:30.727Z,100.00
2022-11-05T06:28:47.846Z,100.00
2022-11-05T06:30:56.146Z,100.00
2022-11-05T06:33:08.866Z,100.00
2022-11-05T06:35:17.215Z,100.00
2022-11-05T06:37:25.338Z,100.00
2022-11-05T06:39:37.221Z,100.00
2022-11-05T06:42:11.899Z,100.00
2022-11-05T06:44:18.047Z,100.00
2022-11-05T06:46:26.225Z,100.00
2022-11-05T06:48:35.713Z,100.00
2022-11-05T06:50:48.902Z,100.00
2022-11-05T06:52:58.878Z,100.00
2022-11-05T06:55:10.349Z,100.00
2022-11-05T06:57:18.570Z,100.00
2022-11-05T06:59:27.153Z,100.00
2022-11-05T07:01:37.550Z,100.00
2022-11-05T07:03:49.207Z,100.00
2022-11-05T07:06:00.265Z,100.00
2022-11-05T07:08:09.125Z,100.00
2022-11-05T07:10:22.252Z,100.00
2022-11-05T07:12:34.191Z,100.00
2022-11-05T07:14:44.055Z,100.00
2022-11-05T07:16:56.344Z,100.00
2022-11-05T07:19:04.583Z,100.00
2022-11-05T07:21:13.276Z,100.00
2022-11-05T07:23:22.674Z,100.00
2022-11-05T07:25:35.158Z,100.00
2022-11-05T07:27:43.958Z,100.00
2022-11-05T07:29:54.802Z,100.00
2022-11-05T07:32:04.416Z,100.00
2022-11-05T07:34:16.757Z,100.00
2022-11-05T07:36:26.021Z,100.00
2022-11-05T07:38:34.266Z,100.00
2022-11-05T07:40:46.015Z,100.00
2022-11-05T07:42:57.755Z,100.00
2022-11-05T07:45:07.991Z,100.00
2022-11-05T07:47:16.069Z,100.00
2022-11-05T07:49:25.364Z,100.00
2022-11-05T07:51:33.772Z,100.00
2022-11-05T07:53:45.464Z,100.00
2022-11-05T07:55:57.434Z,100.00
2022-11-05T07:58:05.950Z,100.00
2022-11-05T08:00:17.568Z,100.00
2022-11-05T08:02:26.297Z,100.00
2022-11-05T08:04:34.752Z,100.00
2022-11-05T08:06:43.072Z,100.00
2022-11-05T08:08:51.139Z,100.00
2022-11-05T08:11:09.744Z,100.00
2022-11-05T08:13:18.451Z,100.00
2022-11-05T08:15:28.738Z,100.00
2022-11-05T08:17:37.264Z,100.00
2022-11-05T08:19:45.646Z,100.00
2022-11-05T08:21:53.729Z,100.00
2022-11-05T08:24:02.174Z,100.00
2022-11-05T08:26:15.137Z,100.00
2022-11-05T08:28:25.109Z,100.00
2022-11-05T08:30:36.779Z,100.00
2022-11-05T08:32:44.984Z,100.00
2022-11-05T08:34:53.173Z,100.00
2022-11-05T08:37:04.060Z,100.00
2022-11-05T08:39:16.980Z,100.00
2022-11-05T08:41:28.635Z,100.00
2022-11-05T08:43:36.903Z,100.00
2022-11-05T08:45:45.371Z,100.00
2022-11-05T08:47:53.796Z,100.00
2022-11-05T08:50:02.020Z,100.00
2022-11-05T08:52:13.662Z,100.00
2022-11-05T08:54:23.092Z,100.00
2022-11-05T08:56:33.863Z,100.00
2022-11-05T08:58:43.903Z,100.00
2022-11-05T09:00:53.370Z,100.00
2022-11-05T09:03:02.396Z,100.00
2022-11-05T09:05:13.271Z,100.00
2022-11-05T09:07:23.181Z,100.00
2022-11-05T09:09:31.386Z,100.00
2022-11-05T09:12:09.831Z,100.00
2022-11-05T09:14:10.765Z,100.00
2022-11-05T09:16:22.271Z,100.00
2022-11-05T09:18:30.996Z,100.00
2022-11-05T09:20:40.617Z,100.00
2022-11-05T09:22:49.332Z,100.00
2022-11-05T09:24:57.879Z,100.00
2022-11-05T09:27:10.393Z,100.00
2022-11-05T09:29:22.306Z,100.00
2022-11-05T09:31:30.629Z,100.00
2022-11-05T09:33:40.783Z,100.00
2022-11-05T09:35:49.380Z,100.00
2022-11-05T09:38:00.956Z,100.00
2022-11-05T09:40:10.659Z,100.00
2022-11-05T09:42:24.771Z,100.00
2022-11-05T09:44:44.625Z,100.00
2022-11-05T09:46:58.410Z,100.00
2022-11-05T09:49:10.812Z,100.00
2022-11-05T09:51:23.916Z,100.00
2022-11-05T09:53:32.814Z,100.00
2022-11-05T09:55:45.877Z,100.00
2022-11-05T09:58:00.688Z,100.00
2022-11-05T10:00:13.667Z,100.00
2022-11-05T10:02:25.636Z,100.00
2022-11-05T10:04:37.388Z,100.00
2022-11-05T10:06:49.958Z,100.00
2022-11-05T10:09:07.653Z,100.00
2022-11-05T10:11:21.448Z,100.00
2022-11-05T10:13:40.420Z,100.00
2022-11-05T10:15:58.986Z,100.00
2022-11-05T10:18:18.813Z,100.00
2022-11-05T10:20:36.198Z,100.00
2022-11-05T10:22:49.287Z,100.00
2022-11-05T10:24:58.956Z,100.00
2022-11-05T10:27:08.442Z,100.00
2022-11-05T10:29:29.863Z,100.00
2022-11-05T10:31:40.521Z,100.00
2022-11-05T10:33:52.371Z,100.00
2022-11-05T10:36:07.219Z,100.00
2022-11-05T10:38:17.443Z,100.00
2022-11-05T10:40:35.669Z,100.00
2022-11-05T10:42:55.334Z,100.00
2022-11-05T10:45:18.380Z,100.00
2022-11-05T10:47:50.267Z,100.00
2022-11-05T10:50:03.646Z,100.00
2022-11-05T10:52:24.379Z,100.00
2022-11-05T10:54:37.807Z,100.00
2022-11-05T10:56:46.054Z,100.00
2022-11-05T10:58:58.749Z,100.00
2022-11-05T11:01:13.716Z,100.00
2022-11-05T11:03:49.158Z,100.00
2022-11-05T11:06:03.446Z,100.00
2022-11-05T11:08:26.450Z,100.00
2022-11-05T11:10:38.432Z,100.00
2022-11-05T11:12:48.837Z,100.00
2022-11-05T11:15:04.159Z,100.00
2022-11-05T11:17:31.888Z,100.00
2022-11-05T11:19:41.501Z,100.00
2022-11-05T11:21:50.894Z,100.00
2022-11-05T11:24:01.157Z,100.00
2022-11-05T11:26:11.643Z,100.00
2022-11-05T11:28:25.407Z,100.00
2022-11-05T11:30:35.367Z,100.00
2022-11-05T11:32:46.192Z,100.00
2022-11-05T11:34:58.485Z,100.00
2022-11-05T11:37:12.901Z,100.00
2022-11-05T11:39:33.416Z,100.00
2022-11-05T11:41:46.653Z,100.00
2022-11-05T11:43:59.001Z,100.00
2022-11-05T11:46:16.479Z,100.00
2022-11-05T11:48:32.767Z,100.00
2022-11-05T11:50:45.629Z,100.00
2022-11-05T11:52:53.911Z,100.00
2022-11-05T11:55:21.997Z,100.00
2022-11-05T11:57:31.859Z,97.90
2022-11-05T12:00:07.365Z,99.22
2022-11-05T12:02:50.265Z,99.76
2022-11-05T12:05:25.466Z,96.16
2022-11-05T12:07:48.473Z,96.11
2022-11-05T12:10:11.087Z,96.70
2022-11-05T12:12:25.013Z,97.12
2022-11-05T12:14:46.643Z,98.46
2022-11-05T12:17:21.763Z,96.48
2022-11-05T12:19:54.765Z,95.95
2022-11-05T12:22:15.279Z,98.29
2022-11-05T12:24:38.580Z,97.07
2022-11-05T12:26:57.524Z,96.38
2022-11-05T12:29:35.561Z,95.84
2022-11-05T12:31:56.467Z,94.05
2022-11-05T12:34:23.002Z,94.92
2022-11-05T12:36:43.419Z,94.28
2022-11-05T12:39:19.408Z,93.62
2022-11-05T12:41:33.394Z,95.05
2022-11-05T12:43:54.144Z,94.72
2022-11-05T12:46:09.148Z,95.06
2022-11-05T12:48:36.711Z,96.26
2022-11-05T12:50:48.625Z,92.90
2022-11-05T12:53:21.897Z,91.16
2022-11-05T12:55:45.483Z,92.67
2022-11-05T12:58:10.512Z,93.90
2022-11-05T13:00:22.298Z,91.86
2022-11-05T13:02:36.988Z,93.39
2022-11-05T13:04:50.115Z,93.15
2022-11-05T13:06:59.011Z,89.79
2022-11-05T13:09:15.274Z,92.69
2022-11-05T13:11:31.136Z,92.01
2022-11-05T13:13:43.907Z,90.58
2022-11-05T13:15:58.830Z,92.94
2022-11-05T13:18:13.467Z,92.64
2022-11-05T13:20:26.198Z,91.37
2022-11-05T13:22:41.397Z,89.02
2022-11-05T13:24:52.539Z,88.67
2022-11-05T13:27:11.331Z,89.62
2022-11-05T13:29:26.175Z,89.49
2022-11-05T13:31:38.801Z,88.83
2022-11-05T13:33:50.482Z,90.53
2022-11-05T13:36:17.606Z,90.81
2022-11-05T13:38:41.246Z,90.82
2022-11-05T13:41:07.744Z,92.08
2022-11-05T13:43:38.879Z,92.58
2022-11-05T13:46:06.054Z,92.29
2022-11-05T13:49:01.664Z,93.35
2022-11-05T13:51:39.294Z,94.17
2022-11-05T13:54:10.988Z,94.23
2022-11-05T13:56:32.347Z,92.04
2022-11-05T13:59:06.904Z,91.73
2022-11-05T14:01:25.626Z,91.32
2022-11-05T14:03:34.466Z,91.26
2022-11-05T14:05:45.537Z,90.79
2022-11-05T14:07:55.663Z,92.22
2022-11-05T14:10:16.567Z,92.40
2022-11-05T14:12:28.762Z,91.11
2022-11-05T14:14:46.730Z,92.95
2022-11-05T14:16:57.823Z,91.65
2022-11-05T14:19:35.670Z,92.94
2022-11-05T14:21:53.022Z,93.46
2022-11-05T14:24:03.027Z,93.79
2022-11-05T14:26:23.404Z,94.05
2022-11-05T14:28:44.371Z,96.09
2022-11-05T14:30:56.944Z,96.74
2022-11-05T14:33:08.065Z,96.61
2022-11-05T14:35:39.707Z,95.00
2022-11-05T14:37:56.994Z,97.33
2022-11-05T14:40:32.035Z,96.59
2022-11-05T14:42:40.648Z,97.49
2022-11-05T14:45:04.574Z,96.31
2022-11-05T14:47:25.871Z,97.86
2022-11-05T14:49:38.663Z,99.87
2022-11-05T14:51:50.004Z,100.00
2022-11-05T14:54:06.107Z,100.00
2022-11-05T14:56:18.244Z,100.00
2022-11-05T14:58:38.818Z,100.00
2022-11-05T15:00:50.601Z,100.00
2022-11-05T15:03:04.456Z,100.00
2022-11-05T15:05:39.611Z,100.00
2022-11-05T15:07:48.243Z,100.00
2022-11-05T15:10:07.150Z,100.00
2022-11-05T15:12:24.648Z,100.00
2022-11-05T15:14:38.749Z,100.00
2022-11-05T15:16:53.548Z,100.00
2022-11-05T15:19:07.753Z,100.00
2022-11-05T15:21:19.891Z,100.00
2022-11-05T15:23:34.158Z,100.00
2022-11-05T15:25:53.241Z,100.00
2022-11-05T15:28:08.575Z,100.00
2022-11-05T15:30:25.546Z,100.00
2022-11-05T15:32:38.467Z,100.00
2022-11-05T15:34:59.726Z,100.00
2022-11-05T15:37:25.327Z,100.00
2022-11-05T15:39:38.455Z,100.00
2022-11-05T15:41:47.894Z,100.00
2022-11-05T15:43:56.613Z,100.00
2022-11-05T15:46:07.418Z,100.00
2022-11-05T15:48:17.954Z,100.00
2022-11-05T15:50:29.003Z,100.00
2022-11-05T15:52:42.384Z,100.00
2022-11-05T15:55:10.579Z,100.00
2022-11-05T15:57:26.239Z,100.00
2022-11-05T15:59:36.523Z,100.00
2022-11-05T16:01:51.197Z,100.00
2022-11-05T16:04:05.762Z,100.00
2022-11-05T16:06:23.053Z,100.00
2022-11-05T16:08:36.277Z,100.00
2022-11-05T16:10:51.969Z,100.00
2022-11-05T16:13:00.049Z,100.00
2022-11-05T16:15:24.502Z,100.00
2022-11-05T16:17:40.646Z,100.00
2022-11-05T16:19:49.685Z,100.00
2022-11-05T16:22:00.705Z,100.00
2022-11-05T16:24:29.040Z,100.00
2022-11-05T16:29:15.132Z,100.00
2022-11-05T16:31:26.560Z,100.00
2022-11-05T16:33:37.329Z,100.00
2022-11-05T16:35:52.218Z,100.00
2022-11-05T16:38:06.593Z,100.00
2022-11-05T16:40:17.858Z,100.00
2022-11-05T16:42:42.497Z,100.00
2022-11-05T16:44:50.749Z,100.00
2022-11-05T16:46:58.738Z,100.00
2022-11-05T16:49:07.112Z,100.00
2022-11-05T16:51:16.706Z,100.00
2022-11-05T16:53:28.103Z,100.00
2022-11-05T16:55:37.652Z,100.00
2022-11-05T16:57:47.380Z,100.00
2022-11-05T16:59:58.342Z,100.00
2022-11-05T17:02:07.789Z,100.00
2022-11-05T17:04:20.472Z,100.00
2022-11-05T17:06:29.807Z,100.00
2022-11-05T17:08:41.134Z,100.00
2022-11-05T17:10:49.694Z,100.00
2022-11-05T17:12:58.310Z,100.00
2022-11-05T17:15:15.198Z,100.00
2022-11-05T17:17:24.484Z,100.00
2022-11-05T17:19:34.866Z,100.00
2022-11-05T17:21:46.144Z,100.00
2022-11-05T17:23:57.184Z,100.00
2022-11-05T17:26:07.694Z,100.00
2022-11-05T17:28:17.019Z,100.00
2022-11-05T17:30:26.032Z,100.00
2022-11-05T17:32:35.623Z,100.00
2022-11-05T17:34:46.637Z,100.00
2022-11-05T17:36:55.809Z,100.00
2022-11-05T17:39:12.262Z,100.00
2022-11-05T17:41:23.309Z,100.00
2022-11-05T17:43:34.817Z,100.00
2022-11-05T17:45:50.619Z,100.00
2022-11-05T17:47:58.754Z,100.00
2022-11-05T17:50:14.489Z,100.00
2022-11-05T17:52:22.698Z,100.00
2022-11-05T17:54:37.412Z,100.00
2022-11-05T17:56:47.268Z,100.00
2022-11-05T17:58:57.629Z,100.00
2022-11-05T18:01:05.812Z,100.00
2022-11-05T18:03:19.019Z,100.00
2022-11-05T18:05:28.389Z,100.00
2022-11-05T18:07:40.419Z,100.00
2022-11-05T18:09:51.712Z,100.00
2022-11-05T18:11:59.758Z,100.00
2022-11-05T18:14:11.505Z,100.00
2022-11-05T18:16:19.666Z,100.00
2022-11-05T18:18:27.940Z,100.00
2022-11-05T18:20:36.546Z,100.00
2022-11-05T18:22:47.418Z,100.00
2022-11-05T18:24:58.794Z,100.00
2022-11-05T18:27:07.481Z,100.00
2022-11-05T18:29:18.084Z,100.00
2022-11-05T18:31:26.385Z,100.00
2022-11-05T18:33:35.613Z,100.00
2022-11-05T18:35:44.715Z,100.00
2022-11-05T18:37:52.785Z,100.00
2022-11-05T18:40:04.797Z,100.00
2022-11-05T18:42:13.781Z,100.00
2022-11-05T18:44:23.083Z,100.00
2022-11-05T18:49:01.469Z,100.00
2022-11-05T18:51:11.480Z,100.00
2022-11-05T18:53:20.030Z,100.00
2022-11-05T18:55:30.711Z,100.00
2022-11-05T18:57:39.817Z,100.00
2022-11-05T18:59:48.889Z,100.00
2022-11-05T19:01:57.178Z,100.00
2022-11-05T19:04:05.604Z,100.00
2022-11-05T19:06:15.087Z,100.00
2022-11-05T19:08:23.451Z,100.00
2022-11-05T19:10:34.786Z,100.00
2022-11-05T19:12:43.073Z,100.00
2022-11-05T19:14:51.093Z,100.00
2022-11-05T19:16:59.546Z,100.00
2022-11-05T19:19:09.042Z,100.00
2022-11-05T19:21:20.367Z,100.00
2022-11-05T19:23:29.661Z,100.00
2022-11-05T19:25:40.602Z,100.00
2022-11-05T19:27:49.125Z,100.00
2022-11-05T19:29:57.807Z,100.00
2022-11-05T19:32:05.930Z,100.00
2022-11-05T19:34:14.984Z,100.00
2022-11-05T19:36:24.725Z,100.00
2022-11-05T19:38:33.325Z,100.00
2022-11-05T19:40:44.353Z,100.00
2022-11-05T19:42:52.942Z,100.00
2022-11-05T19:45:23.131Z,100.00
2022-11-05T19:47:29.970Z,100.00
2022-11-05T19:49:38.536Z,100.00
2022-11-05T19:51:46.757Z,100.00
2022-11-05T19:53:57.315Z,100.00
2022-11-05T19:56:13.293Z,100.00
2022-11-05T19:58:21.443Z,100.00
2022-11-05T20:00:30.216Z,100.00
2022-11-05T20:02:39.032Z,100.00
2022-11-05T20:04:47.258Z,100.00
2022-11-05T20:06:55.480Z,100.00
2022-11-05T20:09:22.965Z,100.00
2022-11-05T20:11:36.251Z,100.00
2022-11-05T20:13:44.791Z,100.00
2022-11-05T20:15:53.231Z,100.00
2022-11-05T20:18:01.239Z,100.00
2022-11-05T20:20:12.123Z,100.00
2022-11-05T20:22:20.321Z,100.00
2022-11-05T20:24:29.743Z,100.00
2022-11-05T20:26:40.712Z,100.00
2022-11-05T20:28:54.818Z,100.00
2022-11-05T20:31:02.828Z,100.00
2022-11-05T20:33:12.263Z,100.00
2022-11-05T20:35:20.400Z,100.00
2022-11-05T20:37:33.361Z,100.00
2022-11-05T20:39:44.572Z,100.00
2022-11-05T20:41:57.011Z,100.00
2022-11-05T20:44:05.074Z,100.00
2022-11-05T20:46:18.026Z,100.00
2022-11-05T20:48:27.082Z,100.00
2022-11-05T20:50:37.629Z,100.00
2022-11-05T20:52:46.195Z,100.00
2022-11-05T20:54:54.321Z,100.00
2022-11-05T20:57:08.969Z,100.00
2022-11-05T20:59:18.509Z,100.00
2022-11-05T21:01:28.819Z,100.00
2022-11-05T21:03:39.106Z,100.00
2022-11-05T21:05:50.147Z,100.00
2022-11-05T21:07:58.191Z,100.00
2022-11-05T21:10:06.707Z,100.00
2022-11-05T21:12:18.693Z,100.00
2022-11-05T21:14:26.936Z,100.00
2022-11-05T21:16:35.530Z,100.00
2022-11-05T21:18:44.192Z,100.00
2022-11-05T21:20:53.333Z,100.00
2022-11-05T21:23:01.567Z,100.00
2022-11-05T21:25:11.690Z,100.00
2022-11-05T21:27:22.672Z,100.00
2022-11-05T21:29:31.526Z,100.00
2022-11-05T21:31:40.027Z,100.00
2022-11-05T21:33:54.827Z,100.00
2022-11-05T21:36:09.356Z,100.00
2022-11-05T21:38:19.446Z,100.00
2022-11-05T21:40:27.755Z,100.00
2022-11-05T21:42:38.799Z,100.00
2022-11-05T21:44:46.929Z,100.00
2022-11-05T21:46:59.684Z,100.00
2022-11-05T21:49:08.056Z,100.00
2022-11-05T21:51:28.911Z,100.00
2022-11-05T21:53:49.465Z,100.00
2022-11-05T21:56:10.097Z,100.00
2022-11-05T21:58:33.459Z,100.00
2022-11-05T22:00:41.733Z,100.00
2022-11-05T22:02:49.985Z,100.00
2022-11-05T22:05:00.595Z,100.00
2022-11-05T22:07:11.165Z,100.00
2022-11-05T22:09:19.137Z,100.00
2022-11-05T22:11:27.855Z,100.00
2022-11-05T22:13:40.853Z,100.00
2022-11-05T22:15:57.669Z,100.00
2022-11-05T22:18:06.012Z,100.00
2022-11-05T22:20:14.787Z,100.00
2022-11-05T22:22:23.889Z,100.00
2022-11-05T22:24:33.124Z,100.00
2022-11-05T22:26:43.328Z,100.00
2022-11-05T22:28:56.131Z,100.00
2022-11-05T22:31:04.356Z,100.00
2022-11-05T22:33:14.130Z,100.00
2022-11-05T22:35:22.436Z,100.00
2022-11-05T22:37:30.861Z,100.00
2022-11-05T22:39:39.041Z,100.00
2022-11-05T22:41:47.465Z,100.00
2022-11-05T22:43:58.903Z,100.00
2022-11-05T22:46:08.266Z,100.00
2022-11-05T22:48:16.633Z,100.00
2022-11-05T22:50:24.816Z,100.00
2022-11-05T22:52:33.119Z,100.00
2022-11-05T22:54:41.844Z,100.00
2022-11-05T22:56:50.448Z,100.00
2022-11-05T22:59:02.152Z,100.00
2022-11-05T23:01:13.643Z,100.00
2022-11-05T23:03:21.642Z,100.00
2022-11-05T23:05:30.535Z,100.00
2022-11-05T23:07:53.083Z,100.00
2022-11-05T23:10:13.655Z,100.00
2022-11-05T23:12:25.895Z,100.00
2022-11-05T23:14:38.184Z,100.00
2022-11-05T23:16:59.350Z,100.00
2022-11-05T23:19:19.767Z,100.00
2022-11-05T23:21:40.483Z,100.00
2022-11-05T23:24:00.767Z,100.00
2022-11-05T23:26:29.084Z,100.00
2022-11-05T23:28:37.260Z,100.00
2022-11-05T23:31:00.419Z,100.00
2022-11-05T23:33:08.585Z,100.00
2022-11-05T23:35:17.651Z,100.00
2022-11-05T23:37:49.546Z,100.00
2022-11-05T23:39:57.745Z,100.00
2022-11-05T23:42:18.126Z,100.00
2022-11-05T23:44:38.704Z,100.00
2022-11-05T23:47:01.822Z,100.00
2022-11-05T23:49:11.816Z,100.00
2022-11-05T23:51:19.969Z,100.00
2022-11-05T23:53:29.177Z,100.00
2022-11-05T23:55:38.698Z,100.00
2022-11-05T23:57:46.944Z,100.00
2022-11-05T23:59:54.954Z,100.00
